TimeEDT,TemperatureF,Dew PointF,Humidity,Sea Level PressureIn,VisibilityMPH,Wind Direction,Wind SpeedMPH,Gust SpeedMPH,PrecipitationIn,Events,Conditions,WindDirDegrees,DateUTC
12:54 AM,48.0,46.0,93,30.01,-9999.0,North,-9999.0,-,N/A,,Unknown,0,2013-09-26 04:54:00
1:54 AM,45.0,44.1,97,30.02,-9999.0,North,-9999.0,-,N/A,,Unknown,0,2013-09-26 05:54:00
2:54 AM,45.0,44.1,97,30.04,-9999.0,North,-9999.0,-,N/A,,Unknown,0,2013-09-26 06:54:00
3:54 AM,46.0,44.1,93,30.04,-9999.0,North,-9999.0,-,N/A,,Unknown,0,2013-09-26 07:54:00
4:54 AM,46.0,44.1,93,30.05,-9999.0,North,-9999.0,-,N/A,,Unknown,0,2013-09-26 08:54:00
5:54 AM,46.9,44.1,90,30.04,-9999.0,North,-9999.0,-,N/A,,Unknown,0,2013-09-26 09:54:00
6:54 AM,46.9,44.1,90,30.06,-9999.0,North,-9999.0,-,N/A,,Unknown,0,2013-09-26 10:54:00
7:54 AM,46.9,44.1,90,30.07,-9999.0,North,-9999.0,-,N/A,,Unknown,0,2013-09-26 11:54:00
8:54 AM,48.9,44.1,83,30.09,-9999.0,North,-9999.0,-,N/A,,Unknown,0,2013-09-26 12:54:00
9:54 AM,52.0,45.0,77,30.09,-9999.0,North,-9999.0,-,N/A,,Unknown,0,2013-09-26 13:54:00
10:54 AM,55.0,44.1,67,30.09,-9999.0,North,-9999.0,-,N/A,,Unknown,0,2013-09-26 14:54:00
11:54 AM,57.0,44.1,62,30.09,-9999.0,North,-9999.0,-,N/A,,Unknown,0,2013-09-26 15:54:00
12:54 PM,57.9,45.0,62,30.08,-9999.0,North,-9999.0,-,N/A,,Unknown,0,2013-09-26 16:54:00
1:54 PM,59.0,45.0,60,30.07,-9999.0,North,-9999.0,-,N/A,,Unknown,0,2013-09-26 17:54:00
2:54 PM,60.1,45.0,57,30.08,-9999.0,North,-9999.0,-,N/A,,Unknown,0,2013-09-26 18:54:00
3:54 PM,59.0,46.0,62,30.08,-9999.0,North,-9999.0,-,N/A,,Unknown,0,2013-09-26 19:54:00
4:54 PM,57.0,46.9,69,30.10,-9999.0,North,-9999.0,-,N/A,,Unknown,0,2013-09-26 20:54:00
5:54 PM,57.0,46.9,69,30.11,-9999.0,North,-9999.0,-,N/A,,Unknown,0,2013-09-26 21:54:00
6:54 PM,55.9,48.0,75,30.12,-9999.0,North,-9999.0,-,N/A,,Unknown,0,2013-09-26 22:54:00
7:54 PM,55.9,48.0,75,30.14,-9999.0,North,-9999.0,-,N/A,,Unknown,0,2013-09-26 23:54:00
8:54 PM,55.0,48.0,77,30.14,-9999.0,North,-9999.0,-,N/A,,Unknown,0,2013-09-27 00:54:00
9:54 PM,55.0,46.9,74,30.16,-9999.0,North,-9999.0,-,N/A,,Unknown,0,2013-09-27 01:54:00
10:54 PM,54.0,46.9,77,30.16,-9999.0,North,-9999.0,-,N/A,,Unknown,0,2013-09-27 02:54:00
11:54 PM,54.0,48.0,80,30.16,-9999.0,North,-9999.0,-,N/A,,Unknown,0,2013-09-27 03:54:00